Bismarck Municipal Airport
KBIS : now visible

Airfield :











YOU CAN JOIN US ON...

 
LOGIN :

Register | Disclaimer

   EN    FR    IT 

 









Legend :    VFR   Marginal VFR   IFR   Intensive IFR   Very Intensive IFR
Visi :
Ceiling :
>= 8 km
>= 3000ft
5 to 8 km
1000 to 3000 ft
1500m to 5 km
500 to 1000 ft
800 to 1500m
200 to 500 ft
< 800m
< 200 ft
Symbols :   Thunderstorms  Fog  Heavy snow  Heavy precipitations  Wind > 20 kt






- Airport Elevation : 1661 ft
- IATA code : BIS


KBIS - Bismarck Municipal

CURRENT METAR :
  • 282352Z AUTO 31007KT 10SM CLR 15/03 A3009 RMK AO2 SLP193 T01500028 10167 20128 56016

EXPIRED METARs :
  • 282252Z AUTO 30012G19KT 10SM CLR 16/03 A3009 RMK AO2 SLP194 T01610033
  • 282152Z 32015G22KT 10SM SCT048 17/03 A3011 RMK AO2 PK WND 31026/2101 SLP201 T01670033

TAF KBIS
Valid from the 29 at 00:00 until the 30 at 00:00 UTC


282337Z 2900/2924 32012G22KT P6SM BKN200
FM290200 26006KT P6SM SCT150
FM290900 28008KT P6SM BKN090 WS015/32040KT
FM291300 31012KT P6SM BKN120
FM291700 32020G30KT P6SM SCT150
KZMP FIR / North America



MET'MAP, your aeronautical weather chart ! - Copyright ORBIFLY December 2007 - Disclaimer

ORBIFLY MET'MAP TEAM :

Programming & Development : Alexandra Zaïnal
Concept & original design : Baudouin d'Aumeries
Assistance for programming : Marc-Olivier Méhu
Technical & hardware support : Manuel Goepfert

Contact : metmap@orbifly.com




SOURCES & CREDITS :

   NOAA       Earth
Advisory